Time;durP1;ratioP1;P1;durP2;ratioP2;P2;SDS_P1;SDS_P2;PMS_P1;PMS_P2;Temp;Humidity;BMP_temperature;BMP_pressure;BME280_temperature;BME280_humidity;BME280_pressure;Samples;Min_cycle;Max_cycle;Signal;HPM_P1;HPM_P2
2021/05/07 00:01:42;;;;;;;1.10;0.83;;;;;;;7.63;100.00;153318.94;5074606;28;20448;-76
2021/05/07 00:04:19;;;;;;;1.80;1.50;;;;;;;7.63;100.00;153318.94;5108338;28;20458;-76
2021/05/07 00:06:54;;;;;;;1.60;1.20;;;;;;;7.64;100.00;153322.84;5082372;28;20870;-76
2021/05/07 00:09:31;;;;;;;1.57;1.27;;;;;;;7.66;100.00;153326.72;5089926;28;20554;-76
2021/05/07 00:12:08;;;;;;;1.57;1.10;;;;;;;7.61;100.00;153313.78;5074034;28;20460;-76
2021/05/07 00:14:43;;;;;;;1.40;1.30;;;;;;;7.61;100.00;153315.09;5084373;28;20528;-76
2021/05/07 00:17:18;;;;;;;1.23;0.90;;;;;;;7.60;100.00;153311.25;5086783;28;20447;-76
2021/05/07 00:19:53;;;;;;;1.30;0.93;;;;;;;7.66;100.00;153328.00;5098373;28;20544;-78
2021/05/07 00:22:28;;;;;;;1.60;1.03;;;;;;;7.65;100.00;153324.16;5089977;28;20441;-76
2021/05/07 00:25:05;;;;;;;1.23;1.13;;;;;;;7.64;100.00;153322.84;5073061;28;20530;-76
2021/05/07 00:27:41;;;;;;;1.27;1.00;;;;;;;7.57;100.00;153304.72;5100666;28;20477;-76
2021/05/07 00:30:17;;;;;;;1.53;1.30;;;;;;;7.61;100.00;153315.09;5107720;28;20453;-76
2021/05/07 00:32:52;;;;;;;2.90;1.30;;;;;;;7.59;100.00;153308.63;5069189;28;20488;-76
2021/05/07 00:35:27;;;;;;;1.70;1.50;;;;;;;7.63;100.00;153318.94;5084522;28;20539;-76
2021/05/07 00:38:02;;;;;;;1.67;1.50;;;;;;;7.61;100.00;153313.78;5088119;28;20459;-76
2021/05/07 00:40:38;;;;;;;1.67;1.20;;;;;;;7.63;100.00;153320.25;5081642;28;20447;-76
2021/05/07 00:43:14;;;;;;;1.50;1.30;;;;;;;7.62;100.00;153317.69;5080107;28;20453;-76
2021/05/07 00:45:51;;;;;;;1.60;1.40;;;;;;;7.60;100.00;153312.50;5088871;28;20794;-75
2021/05/07 00:48:27;;;;;;;1.80;1.20;;;;;;;7.59;100.00;153308.63;5085134;28;20452;-76
2021/05/07 00:51:02;;;;;;;2.00;1.30;;;;;;;7.57;100.00;153303.47;5071368;28;20449;-75
2021/05/07 00:53:37;;;;;;;2.00;1.37;;;;;;;7.59;100.00;153309.94;5083885;28;20994;-76
2021/05/07 00:56:13;;;;;;;1.83;1.27;;;;;;;7.58;100.00;153306.03;5090779;28;20530;-76
2021/05/07 00:58:48;;;;;;;1.10;0.97;;;;;;;7.53;100.00;153293.13;5063335;28;20619;-76
2021/05/07 01:01:23;;;;;;;1.20;1.03;;;;;;;7.51;100.00;153287.97;5087429;28;20432;-76
2021/05/07 01:03:59;;;;;;;1.47;1.10;;;;;;;7.55;100.00;153298.28;5089479;28;20443;-76
2021/05/07 01:06:34;;;;;;;1.40;1.03;;;;;;;7.55;100.00;153298.28;5079807;28;20429;-76
2021/05/07 01:09:09;;;;;;;1.10;0.80;;;;;;;7.54;100.00;153295.72;5066410;28;20460;-76
2021/05/07 01:11:46;;;;;;;1.33;0.90;;;;;;;7.50;100.00;153285.38;5107091;28;20445;-76
2021/05/07 01:14:21;;;;;;;1.37;1.07;;;;;;;7.46;100.00;153275.06;5080372;28;20445;-76
2021/05/07 01:16:56;;;;;;;1.07;0.90;;;;;;;7.46;100.00;153275.06;5049546;28;20934;-76
2021/05/07 01:19:32;;;;;;;1.30;0.90;;;;;;;7.42;100.00;153266.00;5060706;28;20446;-76
2021/05/07 01:22:08;;;;;;;2.07;0.90;;;;;;;7.41;100.00;153263.44;5076515;28;20869;-76
2021/05/07 01:24:43;;;;;;;1.43;1.03;;;;;;;7.38;100.00;153254.41;5065157;28;20442;-76
2021/05/07 01:27:18;;;;;;;1.13;0.80;;;;;;;7.39;100.00;153257.00;5081135;28;20438;-76
2021/05/07 01:29:53;;;;;;;0.87;0.67;;;;;;;7.40;100.00;153259.53;5060164;28;20447;-76
2021/05/07 01:32:29;;;;;;;1.50;0.73;;;;;;;7.35;100.00;153249.25;5089704;28;20578;-76
2021/05/07 01:35:07;;;;;;;1.30;1.00;;;;;;;7.34;100.00;153246.63;5086826;28;20581;-76
2021/05/07 01:37:45;;;;;;;0.90;0.80;;;;;;;7.34;100.00;153246.63;5059926;28;20476;-76
2021/05/07 01:40:21;;;;;;;1.20;0.80;;;;;;;7.36;100.00;153250.50;5084477;28;20539;-76
2021/05/07 01:42:57;;;;;;;0.90;0.80;;;;;;;7.31;100.00;153237.59;5077414;28;20452;-76
2021/05/07 01:45:34;;;;;;;1.10;0.90;;;;;;;7.20;100.00;153210.47;5080885;28;20809;-77
2021/05/07 01:48:10;;;;;;;1.13;0.80;;;;;;;7.21;100.00;153213.06;5061772;28;20452;-76
2021/05/07 01:50:48;;;;;;;1.30;0.80;;;;;;;7.21;100.00;153211.78;5100153;28;20527;-76
2021/05/07 01:53:24;;;;;;;2.20;0.73;;;;;;;7.21;100.00;153213.06;5081912;28;20485;-76
2021/05/07 01:56:00;;;;;;;2.03;1.17;;;;;;;7.19;100.00;153207.91;5057443;28;20453;-76
2021/05/07 01:58:54;;;;;;;1.00;0.80;;;;;;;7.14;100.00;153193.72;5061449;28;20532;-76
2021/05/07 02:01:29;;;;;;;1.23;1.07;;;;;;;7.11;100.00;153185.94;5083180;28;20540;-76
2021/05/07 02:04:07;;;;;;;1.50;1.23;;;;;;;7.01;100.00;153161.44;5061093;28;20452;-76
2021/05/07 02:06:48;;;;;;;1.40;1.17;;;;;;;7.01;100.00;153161.44;5081454;28;20459;-76
2021/05/07 02:09:25;;;;;;;1.23;0.90;;;;;;;7.00;100.00;153157.53;5069965;28;20463;-76
2021/05/07 02:12:00;;;;;;;2.50;0.70;;;;;;;6.99;100.00;153156.25;5065661;28;20452;-76
2021/05/07 02:14:36;;;;;;;1.30;1.00;;;;;;;6.94;100.00;153142.03;5068863;28;20459;-76
2021/05/07 02:17:11;;;;;;;1.07;0.87;;;;;;;6.93;100.00;153140.78;5071972;28;20428;-76
2021/05/07 02:19:46;;;;;;;1.27;0.93;;;;;;;6.85;100.00;153120.13;5081712;28;20450;-76
2021/05/07 02:22:21;;;;;;;1.00;0.83;;;;;;;6.82;100.00;153112.38;5059071;28;20432;-76
2021/05/07 02:24:57;;;;;;;1.40;0.80;;;;;;;6.82;100.00;153111.06;5094672;28;20920;-76
2021/05/07 02:27:33;;;;;;;1.20;0.97;;;;;;;6.80;100.00;153107.22;5088320;28;20536;-76
2021/05/07 02:30:11;;;;;;;1.20;0.90;;;;;;;6.81;100.00;153109.78;5076055;28;20437;-76
2021/05/07 02:32:47;;;;;;;1.53;1.13;;;;;;;6.85;100.00;153118.81;5076420;28;20506;-76
2021/05/07 02:35:22;;;;;;;1.40;1.23;;;;;;;6.79;100.00;153104.63;5061694;28;20844;-76
2021/05/07 02:37:58;;;;;;;1.50;1.13;;;;;;;6.76;100.00;153096.88;5070096;28;20451;-76
2021/05/07 02:40:34;;;;;;;1.10;0.87;;;;;;;6.77;100.00;153099.47;5088465;28;20441;-76
2021/05/07 02:43:10;;;;;;;1.13;1.03;;;;;;;6.73;100.00;153089.13;5077063;28;20441;-76
2021/05/07 02:45:47;;;;;;;1.20;0.80;;;;;;;6.80;100.00;153107.22;5061138;28;20460;-76
2021/05/07 02:48:22;;;;;;;1.20;0.80;;;;;;;6.75;100.00;153094.31;5088968;28;20527;-76
2021/05/07 02:50:57;;;;;;;1.20;0.90;;;;;;;6.77;100.00;153098.19;5079202;28;20450;-76
2021/05/07 02:53:33;;;;;;;1.10;1.00;;;;;;;6.73;100.00;153089.13;5076740;28;20459;-76
2021/05/07 02:56:08;;;;;;;1.43;0.77;;;;;;;6.74;100.00;153091.72;5080984;28;20780;-76
2021/05/07 02:58:44;;;;;;;2.57;1.13;;;;;;;6.69;100.00;153080.13;5085773;28;20536;-76
2021/05/07 03:01:19;;;;;;;1.63;1.30;;;;;;;6.73;100.00;153089.13;5069388;28;20490;-76
2021/05/07 03:03:54;;;;;;;1.40;1.10;;;;;;;6.70;100.00;153081.38;5078418;28;20867;-76
2021/05/07 03:06:30;;;;;;;2.03;1.20;;;;;;;6.74;100.00;153091.72;5090159;28;20455;-76
2021/05/07 03:09:05;;;;;;;1.50;1.03;;;;;;;6.75;100.00;153094.31;5074096;28;20455;-76
2021/05/07 03:11:41;;;;;;;4.93;1.47;;;;;;;6.74;100.00;153093.03;5069617;28;20504;-76
2021/05/07 03:14:17;;;;;;;1.50;1.30;;;;;;;6.74;100.00;153091.72;5071750;28;20453;-76
2021/05/07 03:16:52;;;;;;;1.80;1.30;;;;;;;6.71;100.00;153085.28;5067812;28;20449;-76
2021/05/07 03:19:27;;;;;;;1.83;1.13;;;;;;;6.75;100.00;153094.31;5076467;28;20922;-76
2021/05/07 03:22:02;;;;;;;1.40;1.13;;;;;;;6.69;100.00;153078.81;5104853;28;20448;-76
2021/05/07 03:24:37;;;;;;;1.00;0.90;;;;;;;6.70;100.00;153081.38;5068282;28;20476;-76
2021/05/07 03:27:13;;;;;;;1.80;1.40;;;;;;;6.68;100.00;153076.22;5068010;28;20449;-76
2021/05/07 03:29:49;;;;;;;1.47;0.80;;;;;;;6.65;100.00;153069.78;5063267;28;20469;-76
2021/05/07 03:32:23;;;;;;;1.60;1.20;;;;;;;6.67;100.00;153073.66;5065119;28;20470;-76
2021/05/07 03:34:58;;;;;;;1.80;1.30;;;;;;;6.65;100.00;153068.47;5083144;28;20454;-76
2021/05/07 03:37:34;;;;;;;2.03;1.70;;;;;;;6.62;100.00;153060.72;5074716;28;20522;-76
2021/05/07 03:40:11;;;;;;;2.80;1.60;;;;;;;6.62;100.00;153062.03;5072539;28;20452;-76
2021/05/07 03:42:47;;;;;;;1.70;1.43;;;;;;;6.63;100.00;153064.63;5071778;28;20845;-76
2021/05/07 03:45:22;;;;;;;1.83;1.40;;;;;;;6.60;100.00;153055.56;5088424;28;20550;-76
2021/05/07 03:47:57;;;;;;;1.47;1.37;;;;;;;6.60;100.00;153055.56;5095799;28;20791;-76
2021/05/07 03:50:33;;;;;;;2.03;1.60;;;;;;;6.53;100.00;153037.50;5085691;28;20439;-76
2021/05/07 03:53:09;;;;;;;1.50;1.37;;;;;;;6.52;100.00;153036.22;5103001;28;20568;-76
2021/05/07 03:55:45;;;;;;;1.70;1.20;;;;;;;6.55;100.00;153042.66;5075884;28;20451;-76
2021/05/07 03:58:23;;;;;;;2.60;1.70;;;;;;;6.46;100.00;153020.72;5061462;28;20501;-76
2021/05/07 04:01:00;;;;;;;1.97;1.77;;;;;;;6.47;100.00;153022.00;5104502;28;20460;-76
2021/05/07 04:03:37;;;;;;;2.27;1.80;;;;;;;6.47;100.00;153023.31;5054964;28;20441;-76
2021/05/07 04:06:16;;;;;;;1.60;1.47;;;;;;;6.41;100.00;153006.53;5059422;28;20453;-76
2021/05/07 04:09:00;;;;;;;2.70;2.00;;;;;;;6.41;100.00;153007.81;5071493;28;20825;-76
2021/05/07 04:11:39;;;;;;;2.80;1.77;;;;;;;6.44;100.00;153014.28;5087438;28;20456;-76
2021/05/07 04:14:15;;;;;;;2.13;1.43;;;;;;;6.35;100.00;152991.06;5089415;28;20830;-76
2021/05/07 04:16:50;;;;;;;1.70;1.40;;;;;;;6.31;100.00;152982.03;5047292;28;20820;-75
2021/05/07 04:19:25;;;;;;;3.30;1.93;;;;;;;6.26;100.00;152967.81;5069299;28;20752;-76
2021/05/07 04:22:01;;;;;;;1.90;1.60;;;;;;;6.33;100.00;152985.91;5100626;28;20447;-76
2021/05/07 04:24:36;;;;;;;2.00;1.60;;;;;;;6.26;100.00;152969.13;5104356;28;20449;-76
2021/05/07 04:27:11;;;;;;;1.70;1.20;;;;;;;6.21;100.00;152954.94;5053079;28;20416;-78
2021/05/07 04:29:47;;;;;;;1.77;1.20;;;;;;;6.18;100.00;152947.19;5068635;28;20836;-75
2021/05/07 04:32:22;;;;;;;2.30;1.63;;;;;;;6.23;100.00;152960.06;5058533;28;20479;-75
2021/05/07 04:34:57;;;;;;;1.73;1.20;;;;;;;6.16;100.00;152942.03;5095226;28;20540;-75
2021/05/07 04:37:33;;;;;;;1.83;1.20;;;;;;;6.16;100.00;152943.31;5050663;28;20441;-76
2021/05/07 04:40:09;;;;;;;1.87;1.60;;;;;;;6.16;100.00;152942.03;5067358;28;20491;-76
2021/05/07 04:42:45;;;;;;;1.57;1.30;;;;;;;6.23;100.00;152960.06;5052607;28;20527;-91
2021/05/07 04:45:21;;;;;;;1.90;1.23;;;;;;;6.17;100.00;152944.63;5076570;28;20466;-90
2021/05/07 04:47:56;;;;;;;1.47;1.30;;;;;;;6.16;100.00;152943.31;5089952;28;20429;-91
2021/05/07 04:50:31;;;;;;;1.67;1.20;;;;;;;6.19;100.00;152949.78;5080244;28;20540;-92
2021/05/07 04:53:07;;;;;;;1.73;1.17;;;;;;;6.11;100.00;152931.72;5062218;28;20557;-92
2021/05/07 04:55:42;;;;;;;1.40;0.90;;;;;;;6.11;100.00;152930.44;5101001;28;20835;-92
2021/05/07 04:58:17;;;;;;;1.77;1.43;;;;;;;6.09;100.00;152926.53;5062206;28;20441;-92
2021/05/07 05:00:53;;;;;;;1.50;1.30;;;;;;;6.10;100.00;152927.84;5092173;28;20452;-92
2021/05/07 05:03:29;;;;;;;1.40;1.30;;;;;;;6.11;100.00;152931.72;5075856;28;20436;-92
2021/05/07 05:06:04;;;;;;;1.80;1.40;;;;;;;6.08;100.00;152922.69;5108640;28;20445;-91
2021/05/07 05:08:39;;;;;;;1.80;1.30;;;;;;;6.08;100.00;152923.97;5108966;28;20491;-91
2021/05/07 05:11:15;;;;;;;1.50;1.00;;;;;;;6.07;100.00;152921.38;5077317;28;20440;-92
2021/05/07 05:13:50;;;;;;;1.40;1.30;;;;;;;6.05;100.00;152914.94;5073509;28;20475;-91
2021/05/07 05:16:26;;;;;;;2.07;1.50;;;;;;;6.01;100.00;152905.88;5057321;28;20772;-90
2021/05/07 05:19:01;;;;;;;1.40;1.07;;;;;;;6.05;100.00;152914.94;5063598;28;20453;-91
2021/05/07 05:21:36;;;;;;;1.30;1.10;;;;;;;6.04;100.00;152913.63;5070093;28;20947;-90
2021/05/07 05:24:12;;;;;;;1.43;1.20;;;;;;;6.07;100.00;152921.38;5073881;28;20797;-89
2021/05/07 05:26:47;;;;;;;1.80;1.20;;;;;;;6.09;100.00;152926.53;5105573;28;20440;-90
2021/05/07 05:29:22;;;;;;;2.70;1.83;;;;;;;6.10;100.00;152929.13;5104663;28;20495;-89
2021/05/07 05:31:58;;;;;;;1.57;1.33;;;;;;;6.11;100.00;152931.72;5082592;28;20445;-89
2021/05/07 05:34:33;;;;;;;1.83;1.63;;;;;;;6.08;100.00;152923.97;5061117;28;20436;-84
2021/05/07 05:37:09;;;;;;;2.97;2.10;;;;;;;6.05;100.00;152916.25;5066894;28;20508;-89
2021/05/07 05:39:44;;;;;;;1.87;1.67;;;;;;;5.99;100.00;152900.75;5082285;28;20435;-90
2021/05/07 05:42:19;;;;;;;2.87;2.20;;;;;;;6.00;100.00;152903.34;5107093;28;20528;-91
2021/05/07 05:44:54;;;;;;;2.60;2.40;;;;;;;6.01;100.00;152905.88;5107554;28;20448;-90
2021/05/07 05:47:30;;;;;;;2.97;2.67;;;;;;;6.02;100.00;152908.50;5107064;28;20466;-89
2021/05/07 05:50:07;;;;;;;3.03;2.70;;;;;;;6.01;100.00;152905.88;5077910;28;20453;-89
2021/05/07 05:52:42;;;;;;;4.43;2.70;;;;;;;5.99;100.00;152900.75;5061090;28;20464;-92
2021/05/07 05:55:17;;;;;;;3.93;3.20;;;;;;;5.98;100.00;152898.16;5090596;28;20539;-90
2021/05/07 05:57:53;;;;;;;4.53;3.50;;;;;;;5.91;100.00;152880.09;5082240;28;20443;-91
2021/05/07 06:00:28;;;;;;;3.70;2.97;;;;;;;6.00;100.00;152902.03;5101695;28;20522;-91
2021/05/07 06:03:04;;;;;;;4.47;3.70;;;;;;;6.03;100.00;152909.78;5094570;28;20447;-90
2021/05/07 06:05:40;;;;;;;4.10;3.33;;;;;;;6.08;100.00;152922.69;5080248;28;21005;-91
2021/05/07 06:08:15;;;;;;;4.23;3.30;;;;;;;6.00;100.00;152903.34;5104826;28;20531;-91
2021/05/07 06:10:50;;;;;;;4.20;3.70;;;;;;;6.07;100.00;152920.09;5106881;28;20539;-91
2021/05/07 06:13:25;;;;;;;4.47;4.07;;;;;;;6.07;100.00;152921.38;5072606;28;20471;-89
2021/05/07 06:16:01;;;;;;;4.60;3.80;;;;;;;6.02;100.00;152908.50;5057785;28;20456;-90
2021/05/07 06:18:37;;;;;;;4.60;3.60;;;;;;;6.00;100.00;152903.34;5074707;28;20416;-90
2021/05/07 06:21:11;;;;;;;3.97;3.20;;;;;;;6.06;100.00;152917.53;5085441;28;20444;-90
2021/05/07 06:23:47;;;;;;;4.33;3.93;;;;;;;6.06;100.00;152918.78;5087288;28;20437;-90
2021/05/07 06:26:22;;;;;;;5.83;3.97;;;;;;;6.11;100.00;152930.44;5054907;28;20522;-91
2021/05/07 06:28:57;;;;;;;4.13;3.73;;;;;;;6.13;100.00;152936.88;5073279;28;20857;-90
2021/05/07 06:31:32;;;;;;;5.40;4.17;;;;;;;6.11;100.00;152931.72;5082140;28;20443;-91
2021/05/07 06:34:09;;;;;;;5.27;4.37;;;;;;;6.10;100.00;152927.84;5083772;28;20982;-91
2021/05/07 06:36:44;;;;;;;4.93;3.97;;;;;;;6.14;100.00;152939.44;5108696;28;20453;-92
2021/05/07 06:39:19;;;;;;;6.00;4.40;;;;;;;6.20;100.00;152952.31;5106131;28;20443;-91
2021/05/07 06:41:54;;;;;;;5.40;4.70;;;;;;;6.22;100.00;152957.53;5076335;28;20416;-92
2021/05/07 06:44:30;;;;;;;8.07;5.70;;;;;;;6.23;100.00;152960.06;5059093;28;20912;-91
2021/05/07 06:47:05;;;;;;;5.30;4.40;;;;;;;6.27;100.00;152970.41;5058225;28;20444;-92
2021/05/07 06:49:42;;;;;;;5.87;4.90;;;;;;;6.23;100.00;152960.06;5091425;28;20546;-91
2021/05/07 06:52:17;;;;;;;5.00;4.23;;;;;;;6.31;100.00;152980.72;5071047;28;20474;-91
2021/05/07 06:54:52;;;;;;;6.07;4.50;;;;;;;6.33;100.00;152985.91;5074861;28;20464;-91
2021/05/07 06:57:27;;;;;;;7.40;5.43;;;;;;;6.33;100.00;152987.16;5072797;28;20451;-91
2021/05/07 07:00:03;;;;;;;6.50;5.63;;;;;;;6.30;100.00;152978.16;5107433;28;20787;-91
2021/05/07 07:02:38;;;;;;;6.70;4.90;;;;;;;6.33;100.00;152985.91;5107270;28;20447;-91
2021/05/07 07:05:14;;;;;;;6.27;5.50;;;;;;;6.30;100.00;152978.16;5096727;28;20550;-91
2021/05/07 07:07:49;;;;;;;5.80;5.17;;;;;;;6.32;100.00;152984.63;5105384;28;20447;-91
2021/05/07 07:10:25;;;;;;;6.57;5.90;;;;;;;6.33;100.00;152985.91;5070375;28;20454;-90
2021/05/07 07:13:00;;;;;;;6.60;5.97;;;;;;;6.33;100.00;152985.91;5086468;28;20972;-91
2021/05/07 07:15:35;;;;;;;7.57;6.53;;;;;;;6.29;100.00;152976.88;5057850;28;20452;-90
2021/05/07 07:18:11;;;;;;;7.23;5.80;;;;;;;6.30;100.00;152978.16;5066807;28;20438;-90
2021/05/07 07:20:47;;;;;;;8.67;6.23;;;;;;;6.32;100.00;152983.31;5071976;28;20539;-90
2021/05/07 07:23:22;;;;;;;7.57;6.43;;;;;;;6.25;100.00;152966.53;5071057;28;20444;-90
2021/05/07 07:25:58;;;;;;;7.10;6.40;;;;;;;6.26;100.00;152967.81;5103198;28;20460;-89
2021/05/07 07:28:35;;;;;;;7.90;6.60;;;;;;;6.26;100.00;152967.81;5075720;28;20469;-89
2021/05/07 07:31:10;;;;;;;7.70;7.00;;;;;;;6.22;100.00;152957.53;5072148;28;20807;-89
2021/05/07 07:33:45;;;;;;;6.83;6.13;;;;;;;6.23;100.00;152960.06;5073100;28;20837;-89
2021/05/07 07:36:22;;;;;;;7.57;6.37;;;;;;;6.22;100.00;152958.81;5068459;28;20935;-90
2021/05/07 07:38:57;;;;;;;8.00;7.20;;;;;;;6.19;100.00;152949.78;5075347;28;20776;-89
2021/05/07 07:41:32;;;;;;;10.50;7.70;;;;;;;6.24;100.00;152962.66;5066756;28;20444;-89
2021/05/07 07:44:08;;;;;;;8.93;7.77;;;;;;;6.20;100.00;152953.63;5071677;28;20441;-89
2021/05/07 07:46:43;;;;;;;8.30;7.40;;;;;;;6.19;100.00;152951.06;5066238;28;20840;-90
2021/05/07 07:49:18;;;;;;;8.87;7.53;;;;;;;6.22;100.00;152957.53;5052217;28;20429;-89
2021/05/07 07:51:58;;;;;;;9.27;7.67;;;;;;;6.22;100.00;152957.53;5104294;28;20439;-90
2021/05/07 07:54:33;;;;;;;10.63;7.07;;;;;;;6.22;100.00;152957.53;5056181;28;20464;-89
2021/05/07 07:57:08;;;;;;;8.37;6.50;;;;;;;6.26;100.00;152969.13;5072425;28;20839;-89
2021/05/07 07:59:43;;;;;;;8.40;7.20;;;;;;;6.36;100.00;152993.63;5064672;28;20456;-89
2021/05/07 08:02:18;;;;;;;8.23;7.43;;;;;;;6.40;100.00;153003.97;5056166;28;20660;-89
2021/05/07 08:04:54;;;;;;;7.27;6.20;;;;;;;6.51;100.00;153032.38;5071751;28;20937;-89
2021/05/07 08:07:30;;;;;;;8.00;7.10;;;;;;;6.66;100.00;153071.06;5072740;28;20444;-89
2021/05/07 08:10:06;;;;;;;10.50;7.90;;;;;;;6.72;100.00;153086.56;5068235;28;20454;-90
2021/05/07 08:12:42;;;;;;;8.27;6.73;;;;;;;6.72;100.00;153086.56;5060755;28;20463;-89
2021/05/07 08:15:16;;;;;;;9.80;7.57;;;;;;;7.00;100.00;153158.84;5086973;28;20555;-89
2021/05/07 08:17:51;;;;;;;9.80;7.73;;;;;;;7.47;100.00;153277.63;5072772;28;20443;-89
2021/05/07 08:20:27;;;;;;;9.33;8.33;;;;;;;7.81;100.00;153365.50;5059470;28;20456;-88
2021/05/07 08:23:03;;;;;;;9.83;7.60;;;;;;;8.22;100.00;153471.44;5075063;28;20444;-89
2021/05/07 08:25:39;;;;;;;8.43;7.37;;;;;;;8.39;99.44;153514.13;5089545;28;20445;-89
2021/05/07 08:28:14;;;;;;;9.57;8.13;;;;;;;8.43;95.42;153525.75;5055237;28;20471;-89
2021/05/07 08:30:49;;;;;;;9.60;7.80;;;;;;;8.57;94.90;153560.66;5096534;28;20452;-89
2021/05/07 08:33:24;;;;;;;9.13;8.03;;;;;;;8.96;96.89;153661.50;5075180;28;20469;-89
2021/05/07 08:35:59;;;;;;;9.30;7.47;;;;;;;9.01;90.85;153673.13;5076586;28;20468;-89
2021/05/07 08:38:35;;;;;;;9.13;7.60;;;;;;;9.39;94.76;153771.44;5103547;28;20442;-88
2021/05/07 08:41:11;;;;;;;8.00;7.23;;;;;;;9.77;95.61;153869.75;5115227;28;20449;-89
2021/05/07 08:43:47;;;;;;;7.10;6.40;;;;;;;10.28;88.57;153999.22;5117921;28;20435;-89
2021/05/07 08:46:22;;;;;;;8.23;6.37;;;;;;;10.60;89.60;154082.06;5125939;28;20430;-90
2021/05/07 08:48:59;;;;;;;9.73;5.70;;;;;;;10.20;79.33;153979.81;5080819;28;20426;-89
2021/05/07 08:51:34;;;;;;;8.07;6.53;;;;;;;10.31;86.15;154007.00;5092753;28;20451;-89
2021/05/07 08:54:12;;;;;;;7.17;6.50;;;;;;;10.62;86.17;154087.25;5056188;28;20454;-89
2021/05/07 08:56:47;;;;;;;6.30;5.70;;;;;;;10.17;79.61;153972.03;5054756;28;20491;-90
2021/05/07 08:59:22;;;;;;;6.30;5.70;;;;;;;10.12;82.82;153959.09;5071670;28;20536;-89
2021/05/07 09:01:57;;;;;;;5.33;4.83;;;;;;;9.95;80.79;153913.75;5108441;28;20472;-90
2021/05/07 09:04:49;;;;;;;5.93;5.40;;;;;;;10.10;81.20;153952.56;5090773;28;20809;-90
2021/05/07 09:07:36;;;;;;;6.30;5.70;;;;;;;10.05;82.14;153939.63;5070936;28;20442;-89
2021/05/07 09:10:15;;;;;;;5.47;4.90;;;;;;;10.11;71.23;153955.19;5063810;28;20532;-90
2021/05/07 09:12:55;;;;;;;5.20;4.50;;;;;;;10.46;79.81;154044.56;5070789;28;20472;-89
2021/05/07 09:15:41;;;;;;;6.07;5.00;;;;;;;10.79;76.97;154130.00;5075611;28;20449;-89
2021/05/07 09:18:17;;;;;;;4.90;4.40;;;;;;;10.99;73.57;154181.78;5074004;28;20453;-91
2021/05/07 09:20:53;;;;;;;6.23;4.97;;;;;;;11.20;76.90;154234.94;5061771;28;20486;-89
2021/05/07 09:23:38;;;;;;;5.43;4.93;;;;;;;11.35;69.52;154273.78;5059559;28;20426;-89
2021/05/07 09:26:14;;;;;;;4.77;4.27;;;;;;;10.97;67.82;154176.59;5107969;28;20443;-89
2021/05/07 09:28:55;;;;;;;4.90;4.40;;;;;;;10.69;71.46;154105.41;5074094;28;20481;-89
2021/05/07 09:31:30;;;;;;;5.43;4.93;;;;;;;10.60;75.08;154082.06;5072836;28;20482;-90
2021/05/07 09:34:07;;;;;;;5.90;5.40;;;;;;;10.85;73.23;154146.84;5063392;28;20475;-89
2021/05/07 09:36:42;;;;;;;4.50;4.10;;;;;;;10.81;69.46;154136.47;5058368;28;20450;-90
2021/05/07 09:39:20;;;;;;;4.40;4.00;;;;;;;10.80;67.13;154133.84;5108189;28;20445;-89
2021/05/07 09:41:55;;;;;;;5.10;4.60;;;;;;;10.86;66.82;154148.09;5057782;28;20447;-89
2021/05/07 09:44:34;;;;;;;5.00;4.50;;;;;;;10.85;68.77;154145.53;5074511;28;20440;-89
2021/05/07 09:47:14;;;;;;;6.00;5.00;;;;;;;11.09;65.86;154206.41;5068598;28;20532;-90
2021/05/07 09:49:49;;;;;;;4.90;4.40;;;;;;;11.29;67.13;154259.53;5102238;28;20460;-90
2021/05/07 09:52:26;;;;;;;4.60;4.03;;;;;;;11.59;61.84;154337.28;5107572;28;20436;-89
2021/05/07 09:55:02;;;;;;;5.40;4.57;;;;;;;11.72;63.70;154369.72;5107645;28;20935;-90
2021/05/07 09:57:39;;;;;;;4.03;3.70;;;;;;;11.88;64.05;154409.88;5094281;28;20437;-90
2021/05/07 10:00:18;;;;;;;3.90;3.50;;;;;;;11.99;61.92;154438.41;5107109;28;20465;-90
2021/05/07 10:02:53;;;;;;;4.47;4.03;;;;;;;12.14;59.68;154478.59;5073893;28;20416;-90
2021/05/07 10:05:28;;;;;;;5.87;5.27;;;;;;;12.06;59.92;154457.84;5058255;28;20815;-90
2021/05/07 10:08:04;;;;;;;4.17;3.73;;;;;;;11.77;56.26;154381.38;5106984;28;20807;-90
2021/05/07 10:10:42;;;;;;;4.30;3.90;;;;;;;11.66;57.73;154354.09;5106973;28;20940;-90
2021/05/07 10:13:26;;;;;;;3.70;3.40;;;;;;;11.88;55.42;154411.19;5070276;28;20470;-90
2021/05/07 10:16:02;;;;;;;4.30;3.90;;;;;;;11.82;58.00;154394.31;5105611;28;20453;-90
2021/05/07 10:18:39;;;;;;;4.07;3.27;;;;;;;11.96;53.34;154430.63;5106264;28;20859;-90
2021/05/07 10:21:13;;;;;;;5.03;4.10;;;;;;;12.19;54.95;154491.56;5064624;28;20576;-90
2021/05/07 10:23:51;;;;;;;3.90;3.53;;;;;;;12.11;60.01;154470.81;5073092;28;20929;-90
2021/05/07 10:26:33;;;;;;;4.30;3.87;;;;;;;12.08;61.64;154463.03;5054658;28;20439;-90
2021/05/07 10:29:23;;;;;;;3.97;3.50;;;;;;;11.87;57.73;154408.56;5071242;28;20499;-90
2021/05/07 10:31:59;;;;;;;4.00;3.47;;;;;;;11.76;60.94;154380.06;5060881;28;20448;-90
2021/05/07 10:34:42;;;;;;;3.60;3.30;;;;;;;11.76;59.16;154380.06;5093233;28;20468;-90
2021/05/07 10:37:17;;;;;;;3.70;3.40;;;;;;;11.52;56.89;154317.81;5093352;28;20429;-91
2021/05/07 10:39:54;;;;;;;4.30;3.90;;;;;;;11.54;62.98;154323.03;5087957;28;20448;-90
2021/05/07 10:42:29;;;;;;;4.00;2.97;;;;;;;11.36;57.79;154276.34;5106607;28;20536;-89
2021/05/07 10:45:06;;;;;;;4.07;3.40;;;;;;;11.49;55.27;154311.31;5106770;28;20934;-89
2021/05/07 10:47:41;;;;;;;5.37;3.60;;;;;;;11.59;50.99;154335.97;5074346;28;20523;-90
2021/05/07 10:50:17;;;;;;;3.77;3.47;;;;;;;11.38;58.87;154282.84;5073028;28;20947;-90
2021/05/07 10:52:52;;;;;;;4.67;4.27;;;;;;;11.10;53.89;154210.28;5074033;28;20455;-90
2021/05/07 10:55:32;;;;;;;3.47;3.17;;;;;;;10.90;58.05;154159.78;5071682;28;20458;-90
2021/05/07 10:58:08;;;;;;;4.30;3.80;;;;;;;10.97;53.43;154177.91;5106345;28;21052;-90
2021/05/07 11:00:44;;;;;;;4.80;3.93;;;;;;;11.08;56.88;154203.81;5072222;28;20439;-90
2021/05/07 11:03:19;;;;;;;3.33;3.00;;;;;;;11.16;61.70;154224.53;5056459;28;20454;-90
2021/05/07 11:05:54;;;;;;;4.67;4.27;;;;;;;11.19;59.21;154233.63;5067382;28;20903;-90
2021/05/07 11:08:33;;;;;;;4.80;3.90;;;;;;;11.12;56.20;154215.44;5072189;28;20833;-90
2021/05/07 11:11:08;;;;;;;3.60;3.30;;;;;;;10.96;54.69;154175.31;5073036;28;20452;-90
2021/05/07 11:13:43;;;;;;;4.20;3.53;;;;;;;11.02;55.27;154190.84;5105437;28;20481;-90
2021/05/07 11:16:19;;;;;;;4.30;3.60;;;;;;;11.09;52.57;154206.41;5072310;28;20445;-90
2021/05/07 11:18:54;;;;;;;4.07;3.67;;;;;;;11.13;55.24;154216.75;5072851;28;20438;-90
2021/05/07 11:21:29;;;;;;;3.80;3.37;;;;;;;11.03;55.51;154192.16;5065483;28;20446;-90
2021/05/07 11:24:13;;;;;;;4.50;4.00;;;;;;;10.76;54.30;154122.22;5096179;28;20448;-90
2021/05/07 11:26:48;;;;;;;4.27;3.60;;;;;;;10.73;61.60;154115.75;5091640;28;20783;-90
2021/05/07 11:29:28;;;;;;;5.50;4.70;;;;;;;10.66;60.52;154096.31;5062203;28;20525;-91
2021/05/07 11:32:15;;;;;;;5.60;3.80;;;;;;;10.86;56.17;154149.41;5080840;28;20430;-90
2021/05/07 11:34:51;;;;;;;4.47;3.60;;;;;;;10.90;53.54;154159.78;5079858;28;20849;-90
2021/05/07 11:37:28;;;;;;;4.40;4.00;;;;;;;10.94;61.63;154170.13;5072233;28;20457;-90
2021/05/07 11:40:05;;;;;;;4.83;3.70;;;;;;;11.13;63.32;154216.75;5106002;28;20447;-90
2021/05/07 11:42:42;;;;;;;4.53;3.60;;;;;;;11.24;56.71;154246.56;5088377;28;20450;-90
2021/05/07 11:45:18;;;;;;;5.50;5.10;;;;;;;11.20;60.86;154234.94;5106043;28;20470;-89
2021/05/07 11:47:55;;;;;;;4.00;3.60;;;;;;;11.20;59.01;154234.94;5104858;28;20468;-90
2021/05/07 11:50:29;;;;;;;4.47;4.07;;;;;;;11.14;54.52;154219.38;5073242;28;20453;-91
2021/05/07 11:53:05;;;;;;;5.30;4.80;;;;;;;10.91;56.31;154162.34;5105524;28;20871;-91
2021/05/07 11:55:40;;;;;;;3.70;3.40;;;;;;;10.83;55.37;154141.63;5072043;28;20436;-90
2021/05/07 11:58:15;;;;;;;5.10;3.87;;;;;;;10.86;58.94;154149.41;5071594;28;20941;-90
2021/05/07 12:00:53;;;;;;;4.00;3.60;;;;;;;10.82;56.13;154139.06;5088881;28;20472;-90
2021/05/07 12:03:39;;;;;;;4.50;3.77;;;;;;;10.73;57.81;154114.44;5055674;28;20462;-90
2021/05/07 12:06:18;;;;;;;4.07;3.67;;;;;;;10.67;60.24;154100.19;5071320;28;20434;-90